sensor_id;sensor_type;location;lat;lon;timestamp;P1;durP1;ratioP1;P2;durP2;ratioP2
20232;SDS011;37438;55.674;13.074;2024-01-07T00:01:18;3.50;;;1.92;;
20232;SDS011;37438;55.674;13.074;2024-01-07T00:04:23;4.55;;;2.22;;
20232;SDS011;37438;55.674;13.074;2024-01-07T00:07:27;3.60;;;1.52;;
20232;SDS011;37438;55.674;13.074;2024-01-07T00:10:32;2.58;;;1.70;;
20232;SDS011;37438;55.674;13.074;2024-01-07T00:13:37;3.55;;;2.10;;
20232;SDS011;37438;55.674;13.074;2024-01-07T00:16:42;3.15;;;2.03;;
20232;SDS011;37438;55.674;13.074;2024-01-07T00:19:47;1.50;;;1.38;;
20232;SDS011;37438;55.674;13.074;2024-01-07T00:25:56;5.78;;;1.55;;
20232;SDS011;37438;55.674;13.074;2024-01-07T00:29:01;1.58;;;1.33;;
20232;SDS011;37438;55.674;13.074;2024-01-07T00:32:06;2.03;;;1.75;;
20232;SDS011;37438;55.674;13.074;2024-01-07T00:35:11;1.88;;;1.77;;
20232;SDS011;37438;55.674;13.074;2024-01-07T00:38:16;7.97;;;2.08;;
20232;SDS011;37438;55.674;13.074;2024-01-07T00:41:21;3.05;;;1.52;;
20232;SDS011;37438;55.674;13.074;2024-01-07T00:44:26;3.95;;;1.95;;
20232;SDS011;37438;55.674;13.074;2024-01-07T00:47:31;3.80;;;1.30;;
20232;SDS011;37438;55.674;13.074;2024-01-07T00:50:36;3.92;;;2.10;;
20232;SDS011;37438;55.674;13.074;2024-01-07T00:53:40;2.17;;;1.50;;
20232;SDS011;37438;55.674;13.074;2024-01-07T00:56:45;2.72;;;1.80;;
20232;SDS011;37438;55.674;13.074;2024-01-07T00:59:50;2.55;;;1.48;;
20232;SDS011;37438;55.674;13.074;2024-01-07T01:02:55;3.55;;;1.75;;
20232;SDS011;37438;55.674;13.074;2024-01-07T01:06:01;5.88;;;2.30;;
20232;SDS011;37438;55.674;13.074;2024-01-07T01:12:11;1.75;;;1.65;;
20232;SDS011;37438;55.674;13.074;2024-01-07T01:15:15;3.58;;;2.00;;
20232;SDS011;37438;55.674;13.074;2024-01-07T01:18:20;2.70;;;1.52;;
20232;SDS011;37438;55.674;13.074;2024-01-07T01:21:26;3.38;;;1.92;;
20232;SDS011;37438;55.674;13.074;2024-01-07T01:24:31;1.73;;;1.63;;
20232;SDS011;37438;55.674;13.074;2024-01-07T01:27:36;4.18;;;1.98;;
20232;SDS011;37438;55.674;13.074;2024-01-07T01:33:46;1.40;;;1.30;;
20232;SDS011;37438;55.674;13.074;2024-01-07T01:36:51;2.92;;;1.90;;
20232;SDS011;37438;55.674;13.074;2024-01-07T01:39:57;1.50;;;1.13;;
20232;SDS011;37438;55.674;13.074;2024-01-07T01:43:02;2.45;;;1.55;;
20232;SDS011;37438;55.674;13.074;2024-01-07T01:46:07;1.95;;;1.75;;
20232;SDS011;37438;55.674;13.074;2024-01-07T01:49:12;3.15;;;1.70;;
20232;SDS011;37438;55.674;13.074;2024-01-07T01:52:17;2.25;;;1.67;;
20232;SDS011;37438;55.674;13.074;2024-01-07T01:55:22;5.00;;;1.42;;
20232;SDS011;37438;55.674;13.074;2024-01-07T01:58:28;2.35;;;1.52;;
20232;SDS011;37438;55.674;13.074;2024-01-07T02:01:33;1.88;;;1.73;;
20232;SDS011;37438;55.674;13.074;2024-01-07T02:04:38;1.92;;;1.38;;
20232;SDS011;37438;55.674;13.074;2024-01-07T02:07:43;4.85;;;1.58;;
20232;SDS011;37438;55.674;13.074;2024-01-07T02:10:48;3.45;;;2.40;;
20232;SDS011;37438;55.674;13.074;2024-01-07T02:13:53;1.60;;;1.40;;
20232;SDS011;37438;55.674;13.074;2024-01-07T02:16:58;3.80;;;1.75;;
20232;SDS011;37438;55.674;13.074;2024-01-07T02:20:03;5.53;;;1.55;;
20232;SDS011;37438;55.674;13.074;2024-01-07T02:23:08;2.45;;;1.80;;
20232;SDS011;37438;55.674;13.074;2024-01-07T02:26:13;2.38;;;1.58;;
20232;SDS011;37438;55.674;13.074;2024-01-07T02:29:18;1.45;;;1.27;;
20232;SDS011;37438;55.674;13.074;2024-01-07T02:32:23;1.92;;;1.48;;
20232;SDS011;37438;55.674;13.074;2024-01-07T02:35:28;6.68;;;1.20;;
20232;SDS011;37438;55.674;13.074;2024-01-07T02:38:33;3.20;;;1.83;;
20232;SDS011;37438;55.674;13.074;2024-01-07T02:41:38;7.32;;;1.80;;
20232;SDS011;37438;55.674;13.074;2024-01-07T02:44:43;1.88;;;1.48;;
20232;SDS011;37438;55.674;13.074;2024-01-07T02:47:48;2.00;;;1.15;;
20232;SDS011;37438;55.674;13.074;2024-01-07T02:50:53;2.80;;;1.70;;
20232;SDS011;37438;55.674;13.074;2024-01-07T02:53:58;1.33;;;1.23;;
20232;SDS011;37438;55.674;13.074;2024-01-07T02:57:02;3.30;;;1.52;;
20232;SDS011;37438;55.674;13.074;2024-01-07T03:00:07;2.35;;;1.60;;
20232;SDS011;37438;55.674;13.074;2024-01-07T03:03:12;4.50;;;2.45;;
20232;SDS011;37438;55.674;13.074;2024-01-07T03:06:17;2.08;;;1.80;;
20232;SDS011;37438;55.674;13.074;2024-01-07T03:09:22;1.55;;;1.33;;
20232;SDS011;37438;55.674;13.074;2024-01-07T03:12:27;1.23;;;1.10;;
20232;SDS011;37438;55.674;13.074;2024-01-07T03:15:31;3.63;;;2.10;;
20232;SDS011;37438;55.674;13.074;2024-01-07T03:18:36;3.53;;;1.73;;
20232;SDS011;37438;55.674;13.074;2024-01-07T03:21:41;2.50;;;1.23;;
20232;SDS011;37438;55.674;13.074;2024-01-07T03:24:46;2.47;;;1.85;;
20232;SDS011;37438;55.674;13.074;2024-01-07T03:27:51;4.45;;;1.75;;
20232;SDS011;37438;55.674;13.074;2024-01-07T03:30:56;2.88;;;1.70;;
20232;SDS011;37438;55.674;13.074;2024-01-07T03:34:00;3.55;;;1.60;;
20232;SDS011;37438;55.674;13.074;2024-01-07T03:37:06;2.83;;;1.33;;
20232;SDS011;37438;55.674;13.074;2024-01-07T03:40:11;5.25;;;2.00;;
20232;SDS011;37438;55.674;13.074;2024-01-07T03:43:16;3.00;;;1.50;;
20232;SDS011;37438;55.674;13.074;2024-01-07T03:46:21;1.55;;;1.45;;
20232;SDS011;37438;55.674;13.074;2024-01-07T03:49:26;2.53;;;1.50;;
20232;SDS011;37438;55.674;13.074;2024-01-07T03:52:31;2.17;;;1.45;;
20232;SDS011;37438;55.674;13.074;2024-01-07T03:55:37;2.50;;;1.80;;
20232;SDS011;37438;55.674;13.074;2024-01-07T03:58:41;1.58;;;1.40;;
20232;SDS011;37438;55.674;13.074;2024-01-07T04:01:47;5.07;;;1.63;;
20232;SDS011;37438;55.674;13.074;2024-01-07T04:07:56;2.55;;;1.55;;
20232;SDS011;37438;55.674;13.074;2024-01-07T04:11:02;3.30;;;1.40;;
20232;SDS011;37438;55.674;13.074;2024-01-07T04:14:07;1.90;;;1.50;;
20232;SDS011;37438;55.674;13.074;2024-01-07T04:17:11;2.88;;;2.22;;
20232;SDS011;37438;55.674;13.074;2024-01-07T04:20:16;2.25;;;1.30;;
20232;SDS011;37438;55.674;13.074;2024-01-07T04:23:21;1.88;;;1.35;;
20232;SDS011;37438;55.674;13.074;2024-01-07T04:26:26;3.78;;;1.90;;
20232;SDS011;37438;55.674;13.074;2024-01-07T04:29:30;2.28;;;1.58;;
20232;SDS011;37438;55.674;13.074;2024-01-07T04:35:41;2.27;;;1.50;;
20232;SDS011;37438;55.674;13.074;2024-01-07T04:38:46;2.47;;;1.75;;
20232;SDS011;37438;55.674;13.074;2024-01-07T04:41:50;3.53;;;1.92;;
20232;SDS011;37438;55.674;13.074;2024-01-07T04:44:55;2.45;;;1.90;;
20232;SDS011;37438;55.674;13.074;2024-01-07T04:48:00;1.85;;;1.30;;
20232;SDS011;37438;55.674;13.074;2024-01-07T04:51:05;1.35;;;1.25;;
20232;SDS011;37438;55.674;13.074;2024-01-07T04:54:10;3.42;;;2.00;;
20232;SDS011;37438;55.674;13.074;2024-01-07T04:57:15;7.47;;;1.80;;
20232;SDS011;37438;55.674;13.074;2024-01-07T05:00:20;6.57;;;2.30;;
20232;SDS011;37438;55.674;13.074;2024-01-07T05:03:25;1.58;;;1.25;;
20232;SDS011;37438;55.674;13.074;2024-01-07T05:06:30;2.45;;;1.35;;
20232;SDS011;37438;55.674;13.074;2024-01-07T05:09:35;2.85;;;1.52;;
20232;SDS011;37438;55.674;13.074;2024-01-07T05:12:40;1.50;;;1.30;;
20232;SDS011;37438;55.674;13.074;2024-01-07T05:15:45;4.72;;;1.52;;
20232;SDS011;37438;55.674;13.074;2024-01-07T05:18:57;5.47;;;1.75;;
20232;SDS011;37438;55.674;13.074;2024-01-07T05:22:02;3.13;;;1.48;;
20232;SDS011;37438;55.674;13.074;2024-01-07T05:25:07;2.08;;;1.58;;
20232;SDS011;37438;55.674;13.074;2024-01-07T05:28:13;2.17;;;1.05;;
20232;SDS011;37438;55.674;13.074;2024-01-07T05:31:19;2.50;;;1.33;;
20232;SDS011;37438;55.674;13.074;2024-01-07T05:34:24;1.42;;;1.27;;
20232;SDS011;37438;55.674;13.074;2024-01-07T05:37:29;1.27;;;1.05;;
20232;SDS011;37438;55.674;13.074;2024-01-07T05:40:34;1.40;;;1.02;;
20232;SDS011;37438;55.674;13.074;2024-01-07T05:43:39;1.58;;;1.48;;
20232;SDS011;37438;55.674;13.074;2024-01-07T05:46:43;4.63;;;2.10;;
20232;SDS011;37438;55.674;13.074;2024-01-07T05:49:48;3.80;;;1.33;;
20232;SDS011;37438;55.674;13.074;2024-01-07T05:52:56;1.77;;;1.30;;
20232;SDS011;37438;55.674;13.074;2024-01-07T05:56:00;1.35;;;1.25;;
20232;SDS011;37438;55.674;13.074;2024-01-07T05:59:06;1.42;;;1.33;;
20232;SDS011;37438;55.674;13.074;2024-01-07T06:02:11;2.05;;;1.40;;
20232;SDS011;37438;55.674;13.074;2024-01-07T06:05:16;2.35;;;1.65;;
20232;SDS011;37438;55.674;13.074;2024-01-07T06:08:21;1.88;;;1.58;;
20232;SDS011;37438;55.674;13.074;2024-01-07T06:11:26;3.97;;;1.13;;
20232;SDS011;37438;55.674;13.074;2024-01-07T06:14:30;2.75;;;1.75;;
20232;SDS011;37438;55.674;13.074;2024-01-07T06:17:35;2.28;;;1.05;;
20232;SDS011;37438;55.674;13.074;2024-01-07T06:20:40;8.50;;;1.15;;
20232;SDS011;37438;55.674;13.074;2024-01-07T06:23:45;1.95;;;1.23;;
20232;SDS011;37438;55.674;13.074;2024-01-07T06:26:49;3.05;;;1.30;;
20232;SDS011;37438;55.674;13.074;2024-01-07T06:29:54;1.48;;;1.17;;
20232;SDS011;37438;55.674;13.074;2024-01-07T06:33:00;2.17;;;1.45;;
20232;SDS011;37438;55.674;13.074;2024-01-07T06:36:05;1.38;;;1.17;;
20232;SDS011;37438;55.674;13.074;2024-01-07T06:39:10;1.65;;;1.27;;
20232;SDS011;37438;55.674;13.074;2024-01-07T06:42:15;2.10;;;1.35;;
20232;SDS011;37438;55.674;13.074;2024-01-07T06:45:20;1.90;;;1.10;;
20232;SDS011;37438;55.674;13.074;2024-01-07T06:48:25;3.55;;;1.83;;
20232;SDS011;37438;55.674;13.074;2024-01-07T06:51:30;2.83;;;1.63;;
20232;SDS011;37438;55.674;13.074;2024-01-07T06:54:34;3.38;;;1.50;;
20232;SDS011;37438;55.674;13.074;2024-01-07T06:57:40;1.58;;;1.48;;
20232;SDS011;37438;55.674;13.074;2024-01-07T07:00:45;2.15;;;1.33;;
20232;SDS011;37438;55.674;13.074;2024-01-07T07:03:50;1.25;;;1.15;;
20232;SDS011;37438;55.674;13.074;2024-01-07T07:06:54;0.85;;;0.85;;
20232;SDS011;37438;55.674;13.074;2024-01-07T07:10:01;2.85;;;1.73;;
20232;SDS011;37438;55.674;13.074;2024-01-07T07:16:11;2.03;;;1.60;;
20232;SDS011;37438;55.674;13.074;2024-01-07T07:19:16;1.25;;;1.15;;
20232;SDS011;37438;55.674;13.074;2024-01-07T07:25:26;1.30;;;1.20;;
20232;SDS011;37438;55.674;13.074;2024-01-07T07:28:30;7.20;;;1.73;;
20232;SDS011;37438;55.674;13.074;2024-01-07T07:31:35;5.28;;;1.55;;
20232;SDS011;37438;55.674;13.074;2024-01-07T07:34:41;1.58;;;1.17;;
20232;SDS011;37438;55.674;13.074;2024-01-07T07:37:46;1.42;;;1.20;;
20232;SDS011;37438;55.674;13.074;2024-01-07T07:40:51;3.78;;;2.05;;
20232;SDS011;37438;55.674;13.074;2024-01-07T07:43:56;7.97;;;1.85;;
20232;SDS011;37438;55.674;13.074;2024-01-07T07:47:01;5.57;;;2.33;;
20232;SDS011;37438;55.674;13.074;2024-01-07T07:50:06;2.22;;;1.65;;
20232;SDS011;37438;55.674;13.074;2024-01-07T07:53:12;4.50;;;2.42;;
20232;SDS011;37438;55.674;13.074;2024-01-07T07:56:16;2.35;;;1.38;;
20232;SDS011;37438;55.674;13.074;2024-01-07T07:59:21;5.53;;;2.25;;
20232;SDS011;37438;55.674;13.074;2024-01-07T08:02:26;4.13;;;2.40;;
20232;SDS011;37438;55.674;13.074;2024-01-07T08:08:36;3.50;;;1.88;;
20232;SDS011;37438;55.674;13.074;2024-01-07T08:11:41;6.15;;;2.75;;
20232;SDS011;37438;55.674;13.074;2024-01-07T08:14:45;3.55;;;2.42;;
20232;SDS011;37438;55.674;13.074;2024-01-07T08:17:52;3.42;;;2.28;;
20232;SDS011;37438;55.674;13.074;2024-01-07T08:20:57;2.47;;;2.15;;
20232;SDS011;37438;55.674;13.074;2024-01-07T08:24:02;2.20;;;1.88;;
20232;SDS011;37438;55.674;13.074;2024-01-07T08:27:08;5.85;;;2.22;;
20232;SDS011;37438;55.674;13.074;2024-01-07T08:33:18;6.93;;;2.65;;
20232;SDS011;37438;55.674;13.074;2024-01-07T08:36:22;5.32;;;2.72;;
20232;SDS011;37438;55.674;13.074;2024-01-07T08:39:27;4.22;;;2.42;;
20232;SDS011;37438;55.674;13.074;2024-01-07T08:42:34;5.20;;;2.38;;
20232;SDS011;37438;55.674;13.074;2024-01-07T08:45:39;4.63;;;2.83;;
20232;SDS011;37438;55.674;13.074;2024-01-07T08:48:43;3.22;;;2.08;;
20232;SDS011;37438;55.674;13.074;2024-01-07T08:51:48;2.80;;;1.90;;
20232;SDS011;37438;55.674;13.074;2024-01-07T08:54:53;3.03;;;2.20;;
20232;SDS011;37438;55.674;13.074;2024-01-07T08:57:59;2.60;;;2.30;;
20232;SDS011;37438;55.674;13.074;2024-01-07T09:01:04;3.75;;;2.45;;
20232;SDS011;37438;55.674;13.074;2024-01-07T09:04:09;12.27;;;3.28;;
20232;SDS011;37438;55.674;13.074;2024-01-07T09:07:14;3.30;;;2.25;;
20232;SDS011;37438;55.674;13.074;2024-01-07T09:10:20;4.60;;;2.80;;
20232;SDS011;37438;55.674;13.074;2024-01-07T09:13:25;3.70;;;2.60;;
20232;SDS011;37438;55.674;13.074;2024-01-07T09:16:30;6.03;;;2.75;;
20232;SDS011;37438;55.674;13.074;2024-01-07T09:19:35;3.70;;;2.45;;
20232;SDS011;37438;55.674;13.074;2024-01-07T09:22:40;3.28;;;2.38;;
20232;SDS011;37438;55.674;13.074;2024-01-07T09:25:45;7.72;;;2.65;;
20232;SDS011;37438;55.674;13.074;2024-01-07T09:28:50;4.63;;;2.35;;
20232;SDS011;37438;55.674;13.074;2024-01-07T09:31:55;2.97;;;2.25;;
20232;SDS011;37438;55.674;13.074;2024-01-07T09:35:00;6.53;;;3.13;;
20232;SDS011;37438;55.674;13.074;2024-01-07T09:38:05;15.60;;;3.55;;
20232;SDS011;37438;55.674;13.074;2024-01-07T09:41:15;4.85;;;3.47;;
20232;SDS011;37438;55.674;13.074;2024-01-07T09:44:20;8.90;;;3.00;;
20232;SDS011;37438;55.674;13.074;2024-01-07T09:47:25;6.97;;;3.17;;
20232;SDS011;37438;55.674;13.074;2024-01-07T09:50:30;4.90;;;3.08;;
20232;SDS011;37438;55.674;13.074;2024-01-07T09:53:35;3.88;;;3.00;;
20232;SDS011;37438;55.674;13.074;2024-01-07T09:56:42;8.85;;;4.00;;
20232;SDS011;37438;55.674;13.074;2024-01-07T09:59:47;6.53;;;3.00;;
20232;SDS011;37438;55.674;13.074;2024-01-07T10:02:52;4.88;;;3.33;;
20232;SDS011;37438;55.674;13.074;2024-01-07T10:05:56;6.85;;;3.45;;
20232;SDS011;37438;55.674;13.074;2024-01-07T10:09:01;6.45;;;3.30;;
20232;SDS011;37438;55.674;13.074;2024-01-07T10:12:06;3.63;;;2.97;;
20232;SDS011;37438;55.674;13.074;2024-01-07T10:15:11;11.75;;;5.13;;
20232;SDS011;37438;55.674;13.074;2024-01-07T10:18:15;5.90;;;3.30;;
20232;SDS011;37438;55.674;13.074;2024-01-07T10:21:20;6.15;;;3.20;;
20232;SDS011;37438;55.674;13.074;2024-01-07T10:24:25;2.67;;;2.20;;
20232;SDS011;37438;55.674;13.074;2024-01-07T10:27:33;4.57;;;2.70;;
20232;SDS011;37438;55.674;13.074;2024-01-07T10:30:38;3.25;;;2.10;;
20232;SDS011;37438;55.674;13.074;2024-01-07T10:33:47;3.95;;;2.85;;
20232;SDS011;37438;55.674;13.074;2024-01-07T10:36:53;3.97;;;2.53;;
20232;SDS011;37438;55.674;13.074;2024-01-07T10:40:00;4.13;;;2.72;;
20232;SDS011;37438;55.674;13.074;2024-01-07T10:43:09;5.63;;;2.97;;
20232;SDS011;37438;55.674;13.074;2024-01-07T10:46:14;5.88;;;2.92;;
20232;SDS011;37438;55.674;13.074;2024-01-07T10:52:28;3.35;;;2.60;;
20232;SDS011;37438;55.674;13.074;2024-01-07T10:55:33;7.65;;;2.80;;
20232;SDS011;37438;55.674;13.074;2024-01-07T10:58:40;3.45;;;2.60;;
20232;SDS011;37438;55.674;13.074;2024-01-07T11:05:00;3.45;;;2.50;;
20232;SDS011;37438;55.674;13.074;2024-01-07T11:11:37;4.70;;;3.05;;
20232;SDS011;37438;55.674;13.074;2024-01-07T11:14:45;6.53;;;4.20;;
20232;SDS011;37438;55.674;13.074;2024-01-07T11:17:56;9.10;;;3.83;;
20232;SDS011;37438;55.674;13.074;2024-01-07T11:21:01;2.47;;;2.20;;
20232;SDS011;37438;55.674;13.074;2024-01-07T11:24:05;2.42;;;2.20;;
20232;SDS011;37438;55.674;13.074;2024-01-07T11:27:10;3.72;;;2.75;;
20232;SDS011;37438;55.674;13.074;2024-01-07T11:30:18;5.25;;;3.47;;
20232;SDS011;37438;55.674;13.074;2024-01-07T11:33:23;4.72;;;3.63;;
20232;SDS011;37438;55.674;13.074;2024-01-07T11:36:36;8.18;;;3.70;;
20232;SDS011;37438;55.674;13.074;2024-01-07T11:42:47;5.93;;;3.20;;
20232;SDS011;37438;55.674;13.074;2024-01-07T11:45:52;8.25;;;4.25;;
20232;SDS011;37438;55.674;13.074;2024-01-07T11:48:58;4.80;;;2.88;;
20232;SDS011;37438;55.674;13.074;2024-01-07T11:52:04;4.32;;;2.15;;
20232;SDS011;37438;55.674;13.074;2024-01-07T11:55:09;3.65;;;2.58;;
20232;SDS011;37438;55.674;13.074;2024-01-07T11:58:14;4.60;;;2.75;;
20232;SDS011;37438;55.674;13.074;2024-01-07T12:01:20;3.25;;;2.45;;
20232;SDS011;37438;55.674;13.074;2024-01-07T12:04:24;3.40;;;2.55;;
20232;SDS011;37438;55.674;13.074;2024-01-07T12:07:29;6.30;;;2.95;;
20232;SDS011;37438;55.674;13.074;2024-01-07T12:10:34;3.75;;;2.53;;
20232;SDS011;37438;55.674;13.074;2024-01-07T12:13:39;4.60;;;3.17;;
20232;SDS011;37438;55.674;13.074;2024-01-07T12:16:44;4.20;;;2.53;;
20232;SDS011;37438;55.674;13.074;2024-01-07T12:19:49;4.13;;;2.55;;
20232;SDS011;37438;55.674;13.074;2024-01-07T12:26:06;5.57;;;3.08;;
20232;SDS011;37438;55.674;13.074;2024-01-07T12:29:12;3.47;;;2.42;;
20232;SDS011;37438;55.674;13.074;2024-01-07T12:32:16;4.13;;;2.47;;
20232;SDS011;37438;55.674;13.074;2024-01-07T12:35:24;5.28;;;3.25;;
20232;SDS011;37438;55.674;13.074;2024-01-07T12:38:29;5.20;;;3.00;;
20232;SDS011;37438;55.674;13.074;2024-01-07T12:41:34;4.75;;;3.17;;
20232;SDS011;37438;55.674;13.074;2024-01-07T12:44:39;5.35;;;3.28;;
20232;SDS011;37438;55.674;13.074;2024-01-07T12:47:43;6.35;;;3.30;;
20232;SDS011;37438;55.674;13.074;2024-01-07T12:50:49;6.40;;;3.15;;
20232;SDS011;37438;55.674;13.074;2024-01-07T12:53:54;8.57;;;2.85;;
20232;SDS011;37438;55.674;13.074;2024-01-07T12:57:01;6.47;;;3.17;;
20232;SDS011;37438;55.674;13.074;2024-01-07T13:00:06;6.57;;;3.08;;
20232;SDS011;37438;55.674;13.074;2024-01-07T13:03:11;9.73;;;4.22;;
20232;SDS011;37438;55.674;13.074;2024-01-07T13:06:21;5.45;;;3.10;;
20232;SDS011;37438;55.674;13.074;2024-01-07T13:09:27;5.90;;;3.65;;
20232;SDS011;37438;55.674;13.074;2024-01-07T13:12:31;4.55;;;2.67;;
20232;SDS011;37438;55.674;13.074;2024-01-07T13:15:49;5.93;;;3.15;;
20232;SDS011;37438;55.674;13.074;2024-01-07T13:18:55;6.63;;;3.28;;
20232;SDS011;37438;55.674;13.074;2024-01-07T13:22:00;6.05;;;3.33;;
20232;SDS011;37438;55.674;13.074;2024-01-07T13:25:06;7.53;;;3.72;;
20232;SDS011;37438;55.674;13.074;2024-01-07T13:28:11;7.18;;;3.33;;
20232;SDS011;37438;55.674;13.074;2024-01-07T13:31:16;7.05;;;4.55;;
20232;SDS011;37438;55.674;13.074;2024-01-07T13:34:21;4.40;;;2.60;;
20232;SDS011;37438;55.674;13.074;2024-01-07T13:37:26;7.13;;;3.83;;
20232;SDS011;37438;55.674;13.074;2024-01-07T13:40:31;9.18;;;4.78;;
20232;SDS011;37438;55.674;13.074;2024-01-07T13:43:36;6.88;;;3.75;;
20232;SDS011;37438;55.674;13.074;2024-01-07T13:46:44;6.82;;;3.72;;
20232;SDS011;37438;55.674;13.074;2024-01-07T13:49:50;7.70;;;4.10;;
20232;SDS011;37438;55.674;13.074;2024-01-07T13:52:55;5.07;;;3.58;;
20232;SDS011;37438;55.674;13.074;2024-01-07T13:56:00;5.88;;;3.45;;
20232;SDS011;37438;55.674;13.074;2024-01-07T13:59:05;3.17;;;2.55;;
20232;SDS011;37438;55.674;13.074;2024-01-07T14:02:10;5.35;;;3.28;;
20232;SDS011;37438;55.674;13.074;2024-01-07T14:05:16;6.78;;;3.63;;
20232;SDS011;37438;55.674;13.074;2024-01-07T14:08:23;5.50;;;3.00;;
20232;SDS011;37438;55.674;13.074;2024-01-07T14:11:28;4.93;;;2.90;;
20232;SDS011;37438;55.674;13.074;2024-01-07T14:14:33;4.57;;;3.42;;
20232;SDS011;37438;55.674;13.074;2024-01-07T14:17:38;2.78;;;1.88;;
20232;SDS011;37438;55.674;13.074;2024-01-07T14:20:47;4.55;;;2.65;;
20232;SDS011;37438;55.674;13.074;2024-01-07T14:23:51;5.22;;;2.75;;
20232;SDS011;37438;55.674;13.074;2024-01-07T14:26:56;3.25;;;1.92;;
20232;SDS011;37438;55.674;13.074;2024-01-07T14:30:03;9.25;;;2.83;;
20232;SDS011;37438;55.674;13.074;2024-01-07T14:33:09;4.40;;;3.28;;
20232;SDS011;37438;55.674;13.074;2024-01-07T14:36:14;6.60;;;2.88;;
20232;SDS011;37438;55.674;13.074;2024-01-07T14:39:22;5.13;;;2.70;;
20232;SDS011;37438;55.674;13.074;2024-01-07T14:42:27;5.43;;;3.50;;
20232;SDS011;37438;55.674;13.074;2024-01-07T14:45:32;6.25;;;3.08;;
20232;SDS011;37438;55.674;13.074;2024-01-07T14:48:37;6.40;;;2.95;;
20232;SDS011;37438;55.674;13.074;2024-01-07T14:51:42;4.93;;;3.40;;
20232;SDS011;37438;55.674;13.074;2024-01-07T14:54:47;4.40;;;2.20;;
20232;SDS011;37438;55.674;13.074;2024-01-07T14:57:52;10.55;;;4.35;;
20232;SDS011;37438;55.674;13.074;2024-01-07T15:00:57;5.68;;;3.13;;
20232;SDS011;37438;55.674;13.074;2024-01-07T15:04:02;8.40;;;3.95;;
20232;SDS011;37438;55.674;13.074;2024-01-07T15:07:08;8.55;;;3.72;;
20232;SDS011;37438;55.674;13.074;2024-01-07T15:10:17;5.22;;;3.03;;
20232;SDS011;37438;55.674;13.074;2024-01-07T15:13:22;4.80;;;3.05;;
20232;SDS011;37438;55.674;13.074;2024-01-07T15:16:30;6.45;;;3.13;;
20232;SDS011;37438;55.674;13.074;2024-01-07T15:19:35;5.53;;;3.25;;
20232;SDS011;37438;55.674;13.074;2024-01-07T15:22:40;4.40;;;3.33;;
20232;SDS011;37438;55.674;13.074;2024-01-07T15:25:45;7.43;;;3.65;;
20232;SDS011;37438;55.674;13.074;2024-01-07T15:28:50;6.20;;;2.30;;
20232;SDS011;37438;55.674;13.074;2024-01-07T15:31:56;5.30;;;3.55;;
20232;SDS011;37438;55.674;13.074;2024-01-07T15:35:01;6.18;;;3.30;;
20232;SDS011;37438;55.674;13.074;2024-01-07T15:38:09;10.15;;;3.55;;
20232;SDS011;37438;55.674;13.074;2024-01-07T15:41:14;3.08;;;2.30;;
20232;SDS011;37438;55.674;13.074;2024-01-07T15:44:18;6.10;;;3.30;;
20232;SDS011;37438;55.674;13.074;2024-01-07T15:47:23;5.97;;;3.35;;
20232;SDS011;37438;55.674;13.074;2024-01-07T15:50:28;4.65;;;2.45;;
20232;SDS011;37438;55.674;13.074;2024-01-07T15:53:33;2.90;;;1.75;;
20232;SDS011;37438;55.674;13.074;2024-01-07T15:56:38;4.97;;;3.28;;
20232;SDS011;37438;55.674;13.074;2024-01-07T15:59:43;7.53;;;3.55;;
20232;SDS011;37438;55.674;13.074;2024-01-07T16:02:49;4.53;;;2.78;;
20232;SDS011;37438;55.674;13.074;2024-01-07T16:05:54;3.92;;;2.72;;
20232;SDS011;37438;55.674;13.074;2024-01-07T16:09:00;4.65;;;2.75;;
20232;SDS011;37438;55.674;13.074;2024-01-07T16:12:05;3.75;;;2.67;;
20232;SDS011;37438;55.674;13.074;2024-01-07T16:15:10;4.45;;;2.92;;
20232;SDS011;37438;55.674;13.074;2024-01-07T16:21:20;5.13;;;2.95;;
20232;SDS011;37438;55.674;13.074;2024-01-07T16:24:26;7.28;;;3.10;;
20232;SDS011;37438;55.674;13.074;2024-01-07T16:27:43;5.88;;;3.53;;
20232;SDS011;37438;55.674;13.074;2024-01-07T16:30:47;5.32;;;2.78;;
20232;SDS011;37438;55.674;13.074;2024-01-07T16:33:54;6.57;;;3.35;;
20232;SDS011;37438;55.674;13.074;2024-01-07T16:36:59;6.05;;;3.40;;
20232;SDS011;37438;55.674;13.074;2024-01-07T16:40:03;4.05;;;2.13;;
20232;SDS011;37438;55.674;13.074;2024-01-07T16:43:09;7.15;;;3.40;;
20232;SDS011;37438;55.674;13.074;2024-01-07T16:46:13;5.38;;;2.40;;
20232;SDS011;37438;55.674;13.074;2024-01-07T16:49:18;6.82;;;3.15;;
20232;SDS011;37438;55.674;13.074;2024-01-07T16:52:26;6.95;;;3.55;;
20232;SDS011;37438;55.674;13.074;2024-01-07T16:55:31;8.27;;;3.63;;
20232;SDS011;37438;55.674;13.074;2024-01-07T16:58:36;3.83;;;2.88;;
20232;SDS011;37438;55.674;13.074;2024-01-07T17:01:43;4.63;;;3.25;;
20232;SDS011;37438;55.674;13.074;2024-01-07T17:04:48;7.43;;;3.78;;
20232;SDS011;37438;55.674;13.074;2024-01-07T17:07:53;4.57;;;2.85;;
20232;SDS011;37438;55.674;13.074;2024-01-07T17:10:58;4.88;;;3.05;;
20232;SDS011;37438;55.674;13.074;2024-01-07T17:14:03;4.05;;;3.20;;
20232;SDS011;37438;55.674;13.074;2024-01-07T17:17:08;5.38;;;2.67;;
20232;SDS011;37438;55.674;13.074;2024-01-07T17:20:14;6.03;;;2.65;;
20232;SDS011;37438;55.674;13.074;2024-01-07T17:23:20;4.22;;;2.53;;
20232;SDS011;37438;55.674;13.074;2024-01-07T17:26:26;6.88;;;3.03;;
20232;SDS011;37438;55.674;13.074;2024-01-07T17:29:32;4.70;;;3.00;;
20232;SDS011;37438;55.674;13.074;2024-01-07T17:32:37;4.18;;;2.47;;
20232;SDS011;37438;55.674;13.074;2024-01-07T17:35:42;3.55;;;1.55;;
20232;SDS011;37438;55.674;13.074;2024-01-07T17:38:47;4.78;;;2.75;;
20232;SDS011;37438;55.674;13.074;2024-01-07T17:41:52;8.43;;;3.22;;
20232;SDS011;37438;55.674;13.074;2024-01-07T17:44:57;4.93;;;2.65;;
20232;SDS011;37438;55.674;13.074;2024-01-07T17:48:03;4.40;;;2.42;;
20232;SDS011;37438;55.674;13.074;2024-01-07T17:51:09;4.68;;;3.03;;
20232;SDS011;37438;55.674;13.074;2024-01-07T17:54:14;3.08;;;2.30;;
20232;SDS011;37438;55.674;13.074;2024-01-07T17:57:19;3.60;;;2.25;;
20232;SDS011;37438;55.674;13.074;2024-01-07T18:00:25;3.90;;;2.35;;
20232;SDS011;37438;55.674;13.074;2024-01-07T18:03:30;4.18;;;2.03;;
20232;SDS011;37438;55.674;13.074;2024-01-07T18:06:35;6.35;;;2.55;;
20232;SDS011;37438;55.674;13.074;2024-01-07T18:09:40;3.63;;;2.38;;
20232;SDS011;37438;55.674;13.074;2024-01-07T18:12:45;2.55;;;2.20;;
20232;SDS011;37438;55.674;13.074;2024-01-07T18:15:50;6.18;;;2.97;;
20232;SDS011;37438;55.674;13.074;2024-01-07T18:18:55;4.35;;;2.65;;
20232;SDS011;37438;55.674;13.074;2024-01-07T18:22:00;4.50;;;2.17;;
20232;SDS011;37438;55.674;13.074;2024-01-07T18:25:05;4.22;;;1.85;;
20232;SDS011;37438;55.674;13.074;2024-01-07T18:28:10;3.72;;;2.15;;
20232;SDS011;37438;55.674;13.074;2024-01-07T18:31:16;3.42;;;2.22;;
20232;SDS011;37438;55.674;13.074;2024-01-07T18:34:21;4.65;;;2.40;;
20232;SDS011;37438;55.674;13.074;2024-01-07T18:37:26;2.53;;;1.45;;
20232;SDS011;37438;55.674;13.074;2024-01-07T18:40:31;1.63;;;1.15;;
20232;SDS011;37438;55.674;13.074;2024-01-07T18:43:36;7.78;;;2.30;;
20232;SDS011;37438;55.674;13.074;2024-01-07T18:46:42;3.60;;;2.85;;
20232;SDS011;37438;55.674;13.074;2024-01-07T18:49:49;2.92;;;1.75;;
20232;SDS011;37438;55.674;13.074;2024-01-07T18:52:54;4.05;;;2.05;;
20232;SDS011;37438;55.674;13.074;2024-01-07T18:55:59;4.55;;;2.08;;
20232;SDS011;37438;55.674;13.074;2024-01-07T18:59:03;3.67;;;2.50;;
20232;SDS011;37438;55.674;13.074;2024-01-07T19:02:08;2.17;;;1.85;;
20232;SDS011;37438;55.674;13.074;2024-01-07T19:05:13;6.38;;;2.45;;